Terminal Aerodrome Forecast
Issued by NWS

Home | Current Version | Previous Version | Text Only | Print | Product List | Glossary On
Versions: 1 2 3 4 5 6 7 8 9 10 11 12 13 14 15 16 17 18 19
000
FTUS45 KPSR 201700
TAFIWA
TAF
KIWA 201721Z 2018/2118 15005KT P6SM FEW250
     FM202000 25004KT P6SM SCT250
     FM210400 11004KT P6SM BKN200=

USA.gov is the U.S. government's official web portal to all federal, state and local government web resources and services.